createdAt,value
2022-11-06T00:00:39.284Z,30.10
2022-11-06T00:01:39.343Z,26.60
2022-11-06T00:02:39.281Z,31.70
2022-11-06T00:03:39.261Z,31.00
2022-11-06T00:04:39.284Z,25.00
2022-11-06T00:05:39.267Z,28.20
2022-11-06T00:06:39.252Z,31.40
2022-11-06T00:07:39.252Z,27.60
2022-11-06T00:08:39.297Z,29.50
2022-11-06T00:09:39.185Z,31.60
2022-11-06T00:10:39.181Z,27.70
2022-11-06T00:11:39.864Z,29.30
2022-11-06T00:12:39.945Z,32.60
2022-11-06T00:13:39.920Z,30.20
2022-11-06T00:14:39.143Z,32.80
2022-11-06T00:15:39.116Z,33.90
2022-11-06T00:16:39.137Z,31.90
2022-11-06T00:17:39.930Z,30.50
2022-11-06T00:18:39.109Z,31.10
2022-11-06T00:19:39.114Z,35.10
2022-11-06T00:20:39.062Z,31.40
2022-11-06T00:21:39.071Z,34.00
2022-11-06T00:22:39.049Z,31.90
2022-11-06T00:23:39.043Z,30.80
2022-11-06T00:24:39.054Z,30.80
2022-11-06T00:25:39.025Z,36.80
2022-11-06T00:26:39.023Z,31.50
2022-11-06T00:27:38.996Z,31.10
2022-11-06T00:28:38.994Z,36.00
2022-11-06T00:29:38.971Z,34.30
2022-11-06T00:30:38.985Z,35.50
2022-11-06T00:31:38.947Z,31.00
2022-11-06T00:32:38.976Z,35.90
2022-11-06T00:33:38.978Z,37.10
2022-11-06T00:34:38.909Z,37.70
2022-11-06T00:35:38.934Z,35.60
2022-11-06T00:36:38.908Z,33.60
2022-11-06T00:37:38.897Z,33.10
2022-11-06T00:38:38.895Z,35.70
2022-11-06T00:39:38.873Z,33.40
2022-11-06T00:40:38.931Z,34.30
2022-11-06T00:41:38.934Z,37.00
2022-11-06T00:42:38.947Z,32.60
2022-11-06T00:43:38.853Z,33.00
2022-11-06T00:44:38.867Z,32.20
2022-11-06T00:45:38.879Z,33.10
2022-11-06T00:46:38.818Z,36.20
2022-11-06T00:47:38.873Z,35.20
2022-11-06T00:48:38.943Z,35.70
2022-11-06T00:49:38.816Z,32.80
2022-11-06T00:50:38.850Z,34.30
2022-11-06T00:51:38.806Z,32.90
2022-11-06T00:52:38.809Z,36.20
2022-11-06T00:53:38.874Z,32.50
2022-11-06T00:54:38.896Z,33.60
2022-11-06T00:55:38.751Z,33.40
2022-11-06T00:56:38.670Z,34.50
2022-11-06T00:57:38.706Z,34.50
2022-11-06T00:58:38.781Z,34.10
2022-11-06T00:59:38.679Z,33.70
2022-11-06T01:00:38.648Z,36.50
2022-11-06T01:01:38.812Z,37.70
2022-11-06T01:02:38.804Z,33.50
2022-11-06T01:03:38.661Z,32.30
2022-11-06T01:04:38.620Z,31.30
2022-11-06T01:05:38.599Z,34.10
2022-11-06T01:06:38.609Z,37.10
2022-11-06T01:07:38.582Z,35.50
2022-11-06T01:08:38.652Z,33.50
2022-11-06T01:09:38.562Z,31.20
2022-11-06T01:10:38.529Z,31.30
2022-11-06T01:12:06.709Z,35.20
2022-11-06T01:12:40.505Z,41.60
2022-11-06T01:13:38.504Z,35.40
2022-11-06T01:14:38.518Z,38.70
2022-11-06T01:15:38.455Z,40.20
2022-11-06T01:16:38.500Z,35.90
2022-11-06T01:17:38.483Z,39.20
2022-11-06T01:18:38.465Z,36.00
2022-11-06T01:19:38.416Z,38.50
2022-11-06T01:20:38.415Z,37.20
2022-11-06T01:21:38.459Z,34.30
2022-11-06T01:22:38.398Z,40.10
2022-11-06T01:23:38.392Z,38.40
2022-11-06T01:24:38.442Z,38.20
2022-11-06T01:25:38.370Z,41.30
2022-11-06T01:26:45.357Z,36.70
2022-11-06T01:27:40.370Z,35.60
2022-11-06T01:28:38.350Z,42.30
2022-11-06T01:29:38.365Z,38.70
2022-11-06T01:30:38.334Z,37.00
2022-11-06T01:31:38.342Z,36.40
2022-11-06T01:32:38.301Z,40.30
2022-11-06T01:33:38.298Z,41.30
2022-11-06T01:34:38.264Z,35.80
2022-11-06T01:35:39.320Z,42.30
2022-11-06T01:36:38.262Z,35.90
2022-11-06T01:37:38.265Z,36.10
2022-11-06T01:38:38.214Z,37.50
2022-11-06T01:39:38.214Z,38.90
2022-11-06T01:40:38.203Z,43.50
2022-11-06T01:41:38.195Z,41.00
2022-11-06T01:42:38.192Z,34.50
2022-11-06T01:43:38.207Z,36.80
2022-11-06T01:44:38.166Z,34.90
2022-11-06T01:45:38.159Z,38.40
2022-11-06T01:46:38.159Z,41.00
2022-11-06T01:47:38.143Z,38.80
2022-11-06T01:48:38.139Z,42.40
2022-11-06T01:49:38.119Z,37.20
2022-11-06T01:50:38.946Z,39.50
2022-11-06T01:51:38.123Z,38.50
2022-11-06T01:52:38.055Z,34.80
2022-11-06T01:53:38.094Z,37.90
2022-11-06T01:54:38.062Z,37.40
2022-11-06T01:55:38.081Z,38.40
2022-11-06T01:56:38.054Z,38.40
2022-11-06T01:57:38.035Z,41.10
2022-11-06T01:58:37.996Z,39.20
2022-11-06T01:59:38.029Z,39.80
2022-11-06T02:00:38.032Z,38.60
2022-11-06T02:01:38.086Z,35.30
2022-11-06T02:02:38.204Z,41.80
2022-11-06T02:03:37.965Z,38.20
2022-11-06T02:04:37.939Z,39.40
2022-11-06T02:05:37.943Z,43.20
2022-11-06T02:06:37.925Z,40.30
2022-11-06T02:07:37.956Z,34.90
2022-11-06T02:08:38.108Z,35.10
2022-11-06T02:09:37.880Z,38.30
2022-11-06T02:10:37.888Z,40.70
2022-11-06T02:11:37.876Z,40.80
2022-11-06T02:12:37.840Z,31.30
2022-11-06T02:13:37.853Z,35.40
2022-11-06T02:14:37.851Z,37.50
2022-11-06T02:15:37.936Z,39.60
2022-11-06T02:16:37.787Z,32.70
2022-11-06T02:17:37.785Z,40.30
2022-11-06T02:18:37.783Z,35.80
2022-11-06T02:19:37.801Z,37.80
2022-11-06T02:20:37.957Z,39.80
2022-11-06T02:21:37.772Z,38.20
2022-11-06T02:22:37.801Z,38.30
2022-11-06T02:23:37.740Z,43.60
2022-11-06T02:24:37.735Z,37.60
2022-11-06T02:25:37.798Z,41.20
2022-11-06T02:26:37.723Z,32.80
2022-11-06T02:27:37.764Z,32.60
2022-11-06T02:28:37.704Z,39.00
2022-11-06T02:29:37.680Z,38.50
2022-11-06T02:30:37.648Z,34.90
2022-11-06T02:31:37.666Z,39.60
2022-11-06T02:32:37.622Z,37.00
2022-11-06T02:33:37.648Z,39.10
2022-11-06T02:34:37.594Z,38.70
2022-11-06T02:35:37.612Z,31.80
2022-11-06T02:36:37.594Z,32.00
2022-11-06T02:37:37.588Z,35.30
2022-11-06T02:38:37.573Z,35.80
2022-11-06T02:39:37.557Z,39.70
2022-11-06T02:40:37.548Z,33.80
2022-11-06T02:41:37.529Z,33.80
2022-11-06T02:42:37.526Z,31.20
2022-11-06T02:43:37.557Z,30.90
2022-11-06T02:44:37.503Z,36.80
2022-11-06T02:45:37.526Z,32.80
2022-11-06T02:46:37.516Z,33.80
2022-11-06T02:47:37.481Z,31.60
2022-11-06T02:48:37.533Z,35.70
2022-11-06T02:49:37.604Z,33.30
2022-11-06T02:50:37.438Z,34.10
2022-11-06T02:51:37.427Z,35.70
2022-11-06T02:52:37.440Z,34.30
2022-11-06T02:53:37.409Z,36.70
2022-11-06T02:54:37.421Z,35.00
2022-11-06T02:55:37.394Z,34.20
2022-11-06T02:56:37.360Z,33.70
2022-11-06T02:57:37.386Z,30.40
2022-11-06T02:58:39.082Z,39.10
2022-11-06T02:59:38.379Z,32.60
2022-11-06T03:00:37.330Z,33.60
2022-11-06T03:01:37.437Z,35.10
2022-11-06T03:02:37.466Z,37.90
2022-11-06T03:03:37.418Z,35.00
2022-11-06T03:04:37.280Z,31.90
2022-11-06T03:05:37.258Z,33.20
2022-11-06T03:06:37.281Z,31.10
2022-11-06T03:07:37.286Z,34.40
2022-11-06T03:08:37.285Z,31.80
2022-11-06T03:09:37.242Z,34.60
2022-11-06T03:10:37.213Z,45.80
2022-11-06T03:11:37.229Z,34.90
2022-11-06T03:12:37.265Z,34.40
2022-11-06T03:13:37.233Z,28.90
2022-11-06T03:14:37.201Z,32.70
2022-11-06T03:15:37.294Z,32.50
2022-11-06T03:16:37.222Z,33.00
2022-11-06T03:17:37.201Z,31.60
2022-11-06T03:18:37.147Z,36.20
2022-11-06T03:19:37.125Z,31.30
2022-11-06T03:20:37.134Z,31.10
2022-11-06T03:21:37.078Z,32.60
2022-11-06T03:22:37.106Z,32.50
2022-11-06T03:23:37.060Z,32.00
2022-11-06T03:24:37.054Z,33.00
2022-11-06T03:25:37.228Z,34.20
2022-11-06T03:26:37.091Z,33.00
2022-11-06T03:27:37.018Z,35.70
2022-11-06T03:28:37.018Z,34.90
2022-11-06T03:29:37.049Z,29.30
2022-11-06T03:30:37.011Z,31.20
2022-11-06T03:31:37.456Z,32.60
2022-11-06T03:32:37.023Z,29.80
2022-11-06T03:33:36.980Z,28.20
2022-11-06T03:34:36.951Z,34.40
2022-11-06T03:35:36.943Z,34.00
2022-11-06T03:36:36.951Z,34.80
2022-11-06T03:37:36.916Z,32.30
2022-11-06T03:38:41.058Z,33.90
2022-11-06T03:39:38.902Z,31.80
2022-11-06T03:40:36.888Z,32.20
2022-11-06T03:41:36.928Z,34.10
2022-11-06T03:42:36.854Z,33.00
2022-11-06T03:43:36.886Z,30.10
2022-11-06T03:44:36.882Z,34.40
2022-11-06T03:45:36.849Z,29.90
2022-11-06T03:46:36.923Z,28.40
2022-11-06T03:47:36.799Z,29.00
2022-11-06T03:48:36.795Z,32.00
2022-11-06T03:49:36.963Z,29.80
2022-11-06T03:50:36.765Z,30.50
2022-11-06T03:51:36.800Z,31.80
2022-11-06T03:52:36.792Z,29.30
2022-11-06T03:53:36.769Z,33.70
2022-11-06T03:54:37.739Z,29.00
2022-11-06T03:55:36.725Z,31.60
2022-11-06T03:56:36.724Z,33.40
2022-11-06T03:57:36.744Z,29.00
2022-11-06T03:58:36.800Z,30.90
2022-11-06T03:59:36.729Z,31.70
2022-11-06T04:00:36.700Z,29.40
2022-11-06T04:01:36.811Z,27.60
2022-11-06T04:02:36.856Z,27.50
2022-11-06T04:03:36.653Z,31.30
2022-11-06T04:04:36.665Z,37.70
2022-11-06T04:05:36.628Z,29.90
2022-11-06T04:06:36.608Z,30.90
2022-11-06T04:07:36.741Z,27.50
2022-11-06T04:08:36.603Z,32.60
2022-11-06T04:09:37.596Z,29.40
2022-11-06T04:10:36.626Z,27.60
2022-11-06T04:11:36.566Z,33.70
2022-11-06T04:12:36.553Z,27.70
2022-11-06T04:13:36.517Z,33.80
2022-11-06T04:14:36.539Z,30.00
2022-11-06T04:15:36.541Z,31.80
2022-11-06T04:16:36.501Z,39.20
2022-11-06T04:17:36.509Z,28.80
2022-11-06T04:18:36.475Z,31.90
2022-11-06T04:19:36.486Z,32.10
2022-11-06T04:20:36.446Z,31.10
2022-11-06T04:21:36.434Z,29.50
2022-11-06T04:22:36.446Z,34.40
2022-11-06T04:23:37.740Z,32.90
2022-11-06T04:24:37.650Z,28.80
2022-11-06T04:25:36.407Z,32.30
2022-11-06T04:26:36.478Z,33.40
2022-11-06T04:27:36.386Z,30.50
2022-11-06T04:28:37.397Z,29.80
2022-11-06T04:29:36.556Z,30.50
2022-11-06T04:30:36.366Z,29.40
2022-11-06T04:31:36.454Z,24.20
2022-11-06T04:32:36.338Z,28.60
2022-11-06T04:33:36.326Z,26.80
2022-11-06T04:34:36.315Z,26.50
2022-11-06T04:35:36.322Z,31.70
2022-11-06T04:36:36.287Z,31.90
2022-11-06T04:37:36.282Z,27.90
2022-11-06T04:38:36.286Z,31.50
2022-11-06T04:39:36.431Z,28.70
2022-11-06T04:40:36.259Z,33.80
2022-11-06T04:41:36.219Z,32.10
2022-11-06T04:42:36.235Z,32.30
2022-11-06T04:43:36.252Z,31.80
2022-11-06T04:44:36.215Z,33.40
2022-11-06T04:45:36.214Z,40.80
2022-11-06T04:46:36.187Z,34.40
2022-11-06T04:47:36.962Z,32.80
2022-11-06T04:48:36.196Z,31.30
2022-11-06T04:49:36.181Z,34.50
2022-11-06T04:50:36.143Z,30.10
2022-11-06T04:51:36.147Z,32.60
2022-11-06T04:52:36.125Z,29.10
2022-11-06T04:53:36.299Z,28.80
2022-11-06T04:54:36.114Z,28.50
2022-11-06T04:55:36.320Z,29.90
2022-11-06T04:56:37.996Z,30.60
2022-11-06T04:57:37.096Z,34.00
2022-11-06T04:58:36.072Z,27.00
2022-11-06T04:59:36.048Z,32.70
2022-11-06T05:00:36.080Z,30.40
2022-11-06T05:01:36.213Z,37.30
2022-11-06T05:02:36.048Z,28.60
2022-11-06T05:03:36.005Z,30.40
2022-11-06T05:04:36.017Z,32.70
2022-11-06T05:05:35.994Z,25.00
2022-11-06T05:06:36.004Z,31.60
2022-11-06T05:07:35.952Z,26.40
2022-11-06T05:08:35.948Z,30.10
2022-11-06T05:09:35.937Z,31.30
2022-11-06T05:10:35.939Z,30.10
2022-11-06T05:11:35.946Z,29.60
2022-11-06T05:12:35.913Z,28.50
2022-11-06T05:13:35.932Z,30.60
2022-11-06T05:14:35.962Z,29.20
2022-11-06T05:15:35.882Z,30.70
2022-11-06T05:16:35.940Z,32.00
2022-11-06T05:17:36.775Z,26.60
2022-11-06T05:18:36.837Z,29.90
2022-11-06T05:19:35.838Z,28.10
2022-11-06T05:20:35.869Z,28.40
2022-11-06T05:21:35.905Z,27.80
2022-11-06T05:22:35.809Z,26.90
2022-11-06T05:23:35.880Z,28.80
2022-11-06T05:24:35.812Z,29.20
2022-11-06T05:25:35.785Z,28.10
2022-11-06T05:26:35.811Z,26.40
2022-11-06T05:27:35.774Z,30.30
2022-11-06T05:28:36.734Z,26.30
2022-11-06T05:29:35.717Z,26.30
2022-11-06T05:30:35.741Z,31.20
2022-11-06T05:31:35.759Z,28.10
2022-11-06T05:32:35.728Z,28.90
2022-11-06T05:33:35.674Z,26.50
2022-11-06T05:34:35.677Z,36.00
2022-11-06T05:35:35.721Z,25.80
2022-11-06T05:36:35.698Z,29.10
2022-11-06T05:37:35.650Z,28.00
2022-11-06T05:38:35.697Z,28.90
2022-11-06T05:39:40.493Z,32.10
2022-11-06T05:40:36.614Z,28.90
2022-11-06T05:41:35.607Z,32.60
2022-11-06T05:42:35.622Z,29.00
2022-11-06T05:43:35.574Z,26.50
2022-11-06T05:44:35.638Z,28.10
2022-11-06T05:45:35.546Z,34.00
2022-11-06T05:46:48.044Z,30.90
2022-11-06T05:47:37.611Z,24.90
2022-11-06T05:48:35.597Z,26.10
2022-11-06T05:49:35.508Z,31.40
2022-11-06T05:50:35.513Z,30.90
2022-11-06T05:51:35.476Z,28.90
2022-11-06T05:52:35.486Z,29.40
2022-11-06T05:53:35.467Z,28.70
2022-11-06T05:54:35.450Z,22.70
2022-11-06T05:55:35.443Z,28.50
2022-11-06T05:56:35.459Z,30.90
2022-11-06T05:57:35.473Z,23.80
2022-11-06T05:58:35.435Z,26.50
2022-11-06T05:59:35.408Z,33.70
2022-11-06T06:00:35.424Z,32.60
2022-11-06T06:01:35.577Z,29.20
2022-11-06T06:02:35.521Z,30.60
2022-11-06T06:03:35.367Z,29.80
2022-11-06T06:04:35.341Z,31.10
2022-11-06T06:05:35.351Z,25.40
2022-11-06T06:06:35.347Z,32.50
2022-11-06T06:07:35.336Z,27.60
2022-11-06T06:08:35.309Z,25.20
2022-11-06T06:09:35.316Z,29.10
2022-11-06T06:10:35.294Z,28.40
2022-11-06T06:11:35.257Z,27.60
2022-11-06T06:12:35.267Z,24.40
2022-11-06T06:13:35.853Z,26.00
2022-11-06T06:14:35.227Z,26.10
2022-11-06T06:15:35.235Z,29.00
2022-11-06T06:16:35.241Z,25.10
2022-11-06T06:17:35.209Z,23.90
2022-11-06T06:18:35.242Z,27.10
2022-11-06T06:19:35.177Z,21.80
2022-11-06T06:20:35.165Z,26.10
2022-11-06T06:21:35.168Z,24.90
2022-11-06T06:22:35.154Z,26.00
2022-11-06T06:23:35.164Z,26.00
2022-11-06T06:24:35.299Z,27.50
2022-11-06T06:25:35.109Z,28.60
2022-11-06T06:26:35.108Z,25.30
2022-11-06T06:27:35.102Z,25.50
2022-11-06T06:28:35.110Z,25.60
2022-11-06T06:29:35.126Z,26.90
2022-11-06T06:30:35.061Z,24.60
2022-11-06T06:31:35.073Z,25.00
2022-11-06T06:32:35.143Z,24.10
2022-11-06T06:33:35.073Z,30.20
2022-11-06T06:34:35.056Z,24.00
2022-11-06T06:35:35.032Z,26.90
2022-11-06T06:36:35.028Z,23.20
2022-11-06T06:37:35.040Z,24.00
2022-11-06T06:38:35.015Z,24.90
2022-11-06T06:39:35.022Z,27.10
2022-11-06T06:40:34.925Z,28.60
2022-11-06T06:41:34.950Z,26.10
2022-11-06T06:42:34.965Z,23.00
2022-11-06T06:43:34.907Z,23.80
2022-11-06T06:44:34.929Z,22.60
2022-11-06T06:45:34.921Z,27.40
2022-11-06T06:46:34.908Z,28.90
2022-11-06T06:47:34.882Z,23.90
2022-11-06T06:48:34.874Z,21.80
2022-11-06T06:49:34.878Z,25.00
2022-11-06T06:50:34.991Z,24.80
2022-11-06T06:51:34.845Z,25.40
2022-11-06T06:52:34.853Z,27.10
2022-11-06T06:53:34.828Z,25.60
2022-11-06T06:54:34.864Z,23.80
2022-11-06T06:55:34.860Z,30.80
2022-11-06T06:56:34.793Z,25.20
2022-11-06T06:57:34.783Z,25.50
2022-11-06T06:58:34.758Z,29.50
2022-11-06T06:59:34.759Z,26.80
2022-11-06T07:00:34.764Z,24.90
2022-11-06T07:01:34.838Z,27.00
2022-11-06T07:02:34.745Z,25.50
2022-11-06T07:03:34.825Z,28.00
2022-11-06T07:04:34.680Z,26.20
2022-11-06T07:05:34.750Z,23.20
2022-11-06T07:06:34.695Z,25.10
2022-11-06T07:07:34.690Z,24.40
2022-11-06T07:08:34.681Z,24.50
2022-11-06T07:09:34.655Z,29.30
2022-11-06T07:10:34.689Z,26.20
2022-11-06T07:11:34.660Z,24.10
2022-11-06T07:12:34.640Z,23.50
2022-11-06T07:13:36.356Z,23.40
2022-11-06T07:14:35.576Z,23.50
2022-11-06T07:15:34.581Z,24.80
2022-11-06T07:16:34.662Z,25.20
2022-11-06T07:17:34.549Z,24.80
2022-11-06T07:18:34.560Z,26.10
2022-11-06T07:19:34.537Z,26.00
2022-11-06T07:20:34.529Z,22.90
2022-11-06T07:21:34.513Z,26.70
2022-11-06T07:22:37.264Z,28.90
2022-11-06T07:23:34.517Z,20.70
2022-11-06T07:24:34.481Z,24.20
2022-11-06T07:25:34.460Z,22.70
2022-11-06T07:26:34.464Z,26.10
2022-11-06T07:27:34.460Z,27.20
2022-11-06T07:28:34.414Z,25.20
2022-11-06T07:29:34.426Z,22.90
2022-11-06T07:30:34.438Z,27.20
2022-11-06T07:31:34.414Z,22.80
2022-11-06T07:32:34.488Z,22.70
2022-11-06T07:33:34.395Z,25.10
2022-11-06T07:34:34.386Z,26.70
2022-11-06T07:35:34.361Z,23.50
2022-11-06T07:36:34.381Z,29.40
2022-11-06T07:37:34.334Z,22.50
2022-11-06T07:38:34.374Z,28.80
2022-11-06T07:39:34.323Z,25.00
2022-11-06T07:40:34.346Z,26.90
2022-11-06T07:41:34.325Z,20.10
2022-11-06T07:42:35.737Z,22.00
2022-11-06T07:43:34.308Z,26.50
2022-11-06T07:44:34.272Z,24.60
2022-11-06T07:45:34.269Z,25.40
2022-11-06T07:46:34.238Z,25.70
2022-11-06T07:47:34.255Z,25.00
2022-11-06T07:48:34.254Z,20.20
2022-11-06T07:49:34.262Z,21.20
2022-11-06T07:50:34.239Z,24.40
2022-11-06T07:51:34.190Z,26.60
2022-11-06T07:52:34.167Z,25.20
2022-11-06T07:53:34.202Z,21.80
2022-11-06T07:54:34.183Z,21.00
2022-11-06T07:55:39.187Z,21.80
2022-11-06T07:56:36.178Z,22.70
2022-11-06T07:57:34.913Z,20.20
2022-11-06T07:58:34.156Z,24.50
2022-11-06T07:59:34.125Z,22.50
2022-11-06T08:00:34.216Z,23.00
2022-11-06T08:01:34.250Z,26.00
2022-11-06T08:02:34.164Z,21.40
2022-11-06T08:03:34.086Z,24.30
2022-11-06T08:04:34.098Z,21.30
2022-11-06T08:05:34.042Z,20.40
2022-11-06T08:06:34.014Z,19.00
2022-11-06T08:07:34.163Z,22.70
2022-11-06T08:08:34.012Z,22.40
2022-11-06T08:09:34.011Z,21.40
2022-11-06T08:10:33.983Z,20.80
2022-11-06T08:11:33.959Z,23.80
2022-11-06T08:12:33.983Z,19.00
2022-11-06T08:13:34.069Z,19.90
2022-11-06T08:14:38.671Z,19.20
2022-11-06T08:15:35.947Z,21.40
2022-11-06T08:16:33.919Z,24.50
2022-11-06T08:17:33.903Z,18.00
2022-11-06T08:18:33.865Z,17.50
2022-11-06T08:19:33.915Z,25.00
2022-11-06T08:20:33.900Z,21.60
2022-11-06T08:21:33.864Z,23.30
2022-11-06T08:22:33.846Z,22.10
2022-11-06T08:23:33.832Z,21.30
2022-11-06T08:24:33.834Z,21.80
2022-11-06T08:25:33.820Z,20.90
2022-11-06T08:26:33.811Z,17.90
2022-11-06T08:27:33.811Z,17.10
2022-11-06T08:28:33.831Z,19.60
2022-11-06T08:29:38.288Z,17.10
2022-11-06T08:30:35.808Z,17.70
2022-11-06T08:31:33.753Z,18.00
2022-11-06T08:32:33.755Z,18.50
2022-11-06T08:33:33.716Z,19.70
2022-11-06T08:34:33.702Z,20.80
2022-11-06T08:35:33.707Z,16.20
2022-11-06T08:36:33.685Z,23.50
2022-11-06T08:37:33.677Z,18.30
2022-11-06T08:38:33.679Z,20.30
2022-11-06T08:39:33.774Z,19.10
2022-11-06T08:40:33.759Z,18.10
2022-11-06T08:41:33.700Z,17.70
2022-11-06T08:42:33.763Z,17.30
2022-11-06T08:43:33.616Z,17.90
2022-11-06T08:44:33.807Z,18.40
2022-11-06T08:45:33.668Z,17.10
2022-11-06T08:46:33.603Z,18.90
2022-11-06T08:47:33.600Z,18.80
2022-11-06T08:48:33.589Z,15.50
2022-11-06T08:49:34.615Z,18.80
2022-11-06T08:50:33.569Z,16.00
2022-11-06T08:51:33.556Z,20.20
2022-11-06T08:52:34.380Z,15.80
2022-11-06T08:53:34.625Z,16.50
2022-11-06T08:54:33.566Z,14.90
2022-11-06T08:55:33.595Z,23.70
2022-11-06T08:56:33.524Z,20.50
2022-11-06T08:57:33.612Z,18.70
2022-11-06T08:58:33.581Z,15.40
2022-11-06T08:59:33.475Z,20.80
2022-11-06T09:00:33.496Z,17.90
2022-11-06T09:01:33.767Z,19.90
2022-11-06T09:02:33.520Z,14.70
2022-11-06T09:03:33.453Z,18.30
2022-11-06T09:04:36.184Z,15.60
2022-11-06T09:05:35.806Z,14.70
2022-11-06T09:06:33.411Z,19.20
2022-11-06T09:07:33.406Z,16.10
2022-11-06T09:08:33.386Z,16.60
2022-11-06T09:09:33.365Z,15.90
2022-11-06T09:10:33.381Z,19.80
2022-11-06T09:11:33.345Z,14.20
2022-11-06T09:12:33.525Z,15.90
2022-11-06T09:13:33.365Z,13.80
2022-11-06T09:14:33.316Z,16.00
2022-11-06T09:15:33.325Z,18.90
2022-11-06T09:16:33.334Z,16.90
2022-11-06T09:17:33.313Z,20.10
2022-11-06T09:18:33.353Z,14.80
2022-11-06T09:19:33.277Z,16.80
2022-11-06T09:20:33.320Z,14.10
2022-11-06T09:21:33.229Z,14.80
2022-11-06T09:22:33.213Z,16.20
2022-11-06T09:23:33.221Z,11.20
2022-11-06T09:25:01.312Z,14.80
2022-11-06T09:25:35.224Z,12.40
2022-11-06T09:26:33.842Z,10.30
2022-11-06T09:27:33.222Z,16.50
2022-11-06T09:28:33.173Z,11.10
2022-11-06T09:29:33.165Z,13.60
2022-11-06T09:30:34.215Z,14.20
2022-11-06T09:31:33.147Z,13.40
2022-11-06T09:32:33.125Z,14.70
2022-11-06T09:33:33.869Z,13.10
2022-11-06T09:34:33.101Z,12.40
2022-11-06T09:35:33.081Z,16.00
2022-11-06T09:36:33.183Z,9.90
2022-11-06T09:37:33.103Z,13.40
2022-11-06T09:38:33.062Z,11.50
2022-11-06T09:39:33.026Z,11.70
2022-11-06T09:40:33.122Z,12.80
2022-11-06T09:41:33.775Z,16.40
2022-11-06T09:42:33.040Z,11.00
2022-11-06T09:44:34.999Z,17.20
2022-11-06T09:45:32.970Z,13.60
2022-11-06T09:46:32.939Z,12.50
2022-11-06T09:47:32.941Z,13.90
2022-11-06T09:48:32.919Z,17.30
2022-11-06T09:49:32.974Z,13.10
2022-11-06T09:50:32.954Z,14.90
2022-11-06T09:51:32.919Z,16.90
2022-11-06T09:52:32.892Z,15.00
2022-11-06T09:53:32.890Z,11.30
2022-11-06T09:54:32.898Z,13.60
2022-11-06T09:55:32.845Z,12.30
2022-11-06T09:56:32.903Z,16.50
2022-11-06T09:57:32.819Z,9.50
2022-11-06T09:58:32.820Z,12.70
2022-11-06T09:59:32.930Z,10.10
2022-11-06T10:00:32.779Z,13.80
2022-11-06T10:01:32.954Z,12.60
2022-11-06T10:02:32.879Z,12.40
2022-11-06T10:03:32.760Z,13.10
2022-11-06T10:04:32.816Z,15.10
2022-11-06T10:05:32.890Z,13.40
2022-11-06T10:06:32.775Z,15.20
2022-11-06T10:07:32.725Z,12.50
2022-11-06T10:08:32.696Z,12.20
2022-11-06T10:09:32.733Z,15.40
2022-11-06T10:10:32.669Z,8.80
2022-11-06T10:11:32.755Z,13.80
2022-11-06T10:12:33.727Z,13.40
2022-11-06T10:13:32.711Z,11.20
2022-11-06T10:14:32.624Z,13.80
2022-11-06T10:15:32.615Z,12.70
2022-11-06T10:16:33.250Z,12.40
2022-11-06T10:17:32.852Z,12.40
2022-11-06T10:18:32.737Z,15.00
2022-11-06T10:19:32.573Z,12.90
2022-11-06T10:20:32.622Z,14.80
2022-11-06T10:21:32.611Z,11.20
2022-11-06T10:22:32.639Z,11.90
2022-11-06T10:23:32.525Z,10.60
2022-11-06T10:24:32.500Z,12.10
2022-11-06T10:25:32.551Z,10.30
2022-11-06T10:26:33.857Z,14.20
2022-11-06T10:27:33.500Z,11.50
2022-11-06T10:28:32.523Z,11.00
2022-11-06T10:29:32.474Z,10.70
2022-11-06T10:30:33.262Z,7.30
2022-11-06T10:31:32.503Z,10.30
2022-11-06T10:32:32.450Z,14.30
2022-11-06T10:33:32.394Z,13.50
2022-11-06T10:34:32.390Z,10.50
2022-11-06T10:35:32.361Z,11.80
2022-11-06T10:36:33.871Z,10.50
2022-11-06T10:37:32.407Z,18.50
2022-11-06T10:38:32.352Z,12.20
2022-11-06T10:39:32.412Z,10.20
2022-11-06T10:40:32.346Z,10.70
2022-11-06T10:41:32.344Z,14.00
2022-11-06T10:42:37.587Z,10.40
2022-11-06T10:43:33.341Z,13.80
2022-11-06T10:44:32.303Z,8.80
2022-11-06T10:45:32.287Z,9.40
2022-11-06T10:46:32.318Z,9.40
2022-11-06T10:47:32.297Z,12.10
2022-11-06T10:48:35.668Z,6.80
2022-11-06T10:49:34.218Z,12.40
2022-11-06T10:50:32.259Z,11.60
2022-11-06T10:51:32.348Z,7.50
2022-11-06T10:52:32.268Z,7.50
2022-11-06T10:53:32.228Z,9.60
2022-11-06T10:54:32.365Z,8.80
2022-11-06T10:55:32.186Z,9.00
2022-11-06T10:56:32.185Z,7.80
2022-11-06T10:57:33.563Z,7.60
2022-11-06T10:58:32.111Z,9.10
2022-11-06T10:59:32.101Z,12.00
2022-11-06T11:00:32.129Z,10.00
2022-11-06T11:01:32.224Z,10.40
2022-11-06T11:02:32.279Z,7.50
2022-11-06T11:03:32.085Z,8.80
2022-11-06T11:04:32.088Z,12.90
2022-11-06T11:05:32.089Z,10.00
2022-11-06T11:06:32.077Z,9.50
2022-11-06T11:07:32.029Z,11.30
2022-11-06T11:08:32.084Z,10.40
2022-11-06T11:09:32.041Z,7.50
2022-11-06T11:10:32.019Z,8.10
2022-11-06T11:11:31.982Z,9.60
2022-11-06T11:12:31.963Z,9.80
2022-11-06T11:13:32.129Z,9.40
2022-11-06T11:14:31.947Z,11.80
2022-11-06T11:15:31.969Z,8.10
2022-11-06T11:16:31.933Z,10.10
2022-11-06T11:17:31.949Z,8.00
2022-11-06T11:18:31.979Z,9.60
2022-11-06T11:19:31.925Z,8.90
2022-11-06T11:20:31.957Z,11.10
2022-11-06T11:21:31.899Z,8.90
2022-11-06T11:22:33.314Z,10.00
2022-11-06T11:23:32.961Z,9.40
2022-11-06T11:24:31.953Z,10.60
2022-11-06T11:25:31.834Z,10.60
2022-11-06T11:26:31.841Z,8.50
2022-11-06T11:27:31.837Z,7.20
2022-11-06T11:28:31.798Z,9.70
2022-11-06T11:29:31.850Z,8.40
2022-11-06T11:30:31.801Z,10.50
2022-11-06T11:31:31.804Z,8.80
2022-11-06T11:32:31.820Z,8.90
2022-11-06T11:33:31.767Z,10.30
2022-11-06T11:34:31.771Z,8.30
2022-11-06T11:35:32.366Z,6.90
2022-11-06T11:36:31.747Z,8.20
2022-11-06T11:37:31.932Z,6.90
2022-11-06T11:38:31.708Z,10.60
2022-11-06T11:39:31.764Z,7.60
2022-11-06T11:40:31.786Z,8.90
2022-11-06T11:41:31.683Z,9.30
2022-11-06T11:42:31.680Z,8.30
2022-11-06T11:43:31.639Z,8.90
2022-11-06T11:44:31.658Z,5.60
2022-11-06T11:45:31.657Z,8.70
2022-11-06T11:46:31.701Z,7.40
2022-11-06T11:47:31.612Z,7.10
2022-11-06T11:48:31.575Z,7.30
2022-11-06T11:49:31.606Z,7.60
2022-11-06T11:50:31.587Z,6.30
2022-11-06T11:51:31.638Z,9.60
2022-11-06T11:52:31.602Z,9.00
2022-11-06T11:53:31.540Z,7.50
2022-11-06T11:54:31.594Z,4.50
2022-11-06T11:55:32.413Z,5.60
2022-11-06T11:56:58.231Z,8.10
2022-11-06T11:57:33.526Z,7.60
2022-11-06T11:58:31.491Z,9.20
2022-11-06T11:59:31.472Z,9.50
2022-11-06T12:00:31.533Z,6.80
2022-11-06T12:01:31.509Z,11.40
2022-11-06T12:02:31.637Z,7.60
2022-11-06T12:03:31.450Z,8.30
2022-11-06T12:04:31.424Z,6.30
2022-11-06T12:05:31.416Z,7.90
2022-11-06T12:06:31.405Z,10.10
2022-11-06T12:07:31.633Z,7.00
2022-11-06T12:08:31.433Z,9.20
2022-11-06T12:09:31.433Z,6.40
2022-11-06T12:10:31.438Z,6.20
2022-11-06T12:11:31.345Z,5.90
2022-11-06T12:12:31.370Z,7.60
2022-11-06T12:13:31.353Z,7.50
2022-11-06T12:14:31.315Z,9.70
2022-11-06T12:15:31.346Z,8.60
2022-11-06T12:16:31.292Z,5.30
2022-11-06T12:17:31.337Z,6.50
2022-11-06T12:18:31.348Z,9.00
2022-11-06T12:19:31.281Z,8.10
2022-11-06T12:20:31.268Z,6.20
2022-11-06T12:21:32.299Z,7.80
2022-11-06T12:22:31.230Z,5.60
2022-11-06T12:23:31.285Z,7.50
2022-11-06T12:24:31.225Z,7.70
2022-11-06T12:25:31.233Z,5.20
2022-11-06T12:26:31.241Z,4.90
2022-11-06T12:27:31.205Z,6.60
2022-11-06T12:28:31.214Z,4.60
2022-11-06T12:29:31.214Z,6.40
2022-11-06T12:30:31.142Z,6.50
2022-11-06T12:31:31.227Z,5.90
2022-11-06T12:32:31.117Z,6.30
2022-11-06T12:34:04.398Z,5.00
2022-11-06T12:34:33.129Z,7.90
2022-11-06T12:35:31.159Z,6.10
2022-11-06T12:36:31.055Z,6.00
2022-11-06T12:37:31.078Z,4.40
2022-11-06T12:38:31.226Z,6.10
2022-11-06T12:39:31.139Z,6.80
2022-11-06T12:40:31.078Z,3.60
2022-11-06T12:41:31.070Z,3.80
2022-11-06T12:42:31.866Z,4.40
2022-11-06T12:43:31.089Z,4.30
2022-11-06T12:44:30.990Z,7.00
2022-11-06T12:45:31.077Z,6.30
2022-11-06T12:46:31.003Z,4.40
2022-11-06T12:47:31.046Z,5.60
2022-11-06T12:48:30.958Z,5.10
2022-11-06T12:49:32.031Z,6.20
2022-11-06T12:52:00.619Z,11.20
2022-11-06T12:53:06.132Z,5.10
2022-11-06T12:54:02.805Z,6.10
2022-11-06T12:55:01.755Z,5.60
2022-11-06T12:56:01.743Z,6.10
2022-11-06T12:57:02.552Z,5.80
2022-11-06T12:58:01.727Z,4.60
2022-11-06T12:59:01.829Z,3.50